Time;durP1;ratioP1;P1;durP2;ratioP2;P2;SDS_P1;SDS_P2;PMS_P1;PMS_P2;Temp;Humidity;BMP_temperature;BMP_pressure;BME280_temperature;BME280_humidity;BME280_pressure;Samples;Min_cycle;Max_cycle;Signal;HPM_P1;HPM_P2
2024/04/16 00:00:53;;;;;;;5.83;1.40;;;;;;;;;;5411489;26;20684;-71
2024/04/16 00:03:18;;;;;;;6.57;1.77;;;;;;;;;;5406095;26;20243;-71
2024/04/16 00:05:43;;;;;;;6.40;1.50;;;;;;;;;;5408297;26;20282;-70
2024/04/16 00:08:08;;;;;;;6.33;1.30;;;;;;;;;;5415726;26;20238;-71
2024/04/16 00:10:34;;;;;;;3.83;1.10;;;;;;;;;;5409962;26;20247;-71
2024/04/16 00:12:59;;;;;;;4.97;1.73;;;;;;;;;;5409846;26;20242;-70
2024/04/16 00:15:24;;;;;;;5.23;1.13;;;;;;;;;;5414352;26;20795;-71
2024/04/16 00:17:50;;;;;;;8.30;2.03;;;;;;;;;;5408584;26;20264;-71
2024/04/16 00:20:15;;;;;;;5.20;1.50;;;;;;;;;;5418336;26;20235;-70
2024/04/16 00:22:41;;;;;;;7.13;1.23;;;;;;;;;;5402582;26;20266;-71
2024/04/16 00:25:08;;;;;;;5.23;1.60;;;;;;;;;;5415345;26;20235;-71
2024/04/16 00:27:33;;;;;;;6.77;2.17;;;;;;;;;;5405601;26;20240;-70
2024/04/16 00:29:59;;;;;;;5.13;1.30;;;;;;;;;;5410626;26;20288;-70
2024/04/16 00:32:24;;;;;;;9.73;1.70;;;;;;;;;;5411004;26;20262;-70
2024/04/16 00:34:49;;;;;;;4.27;1.33;;;;;;;;;;5414220;26;20239;-70
2024/04/16 00:37:14;;;;;;;6.07;1.57;;;;;;;;;;5408469;26;20343;-70
2024/04/16 00:39:40;;;;;;;7.10;2.17;;;;;;;;;;5412748;26;20239;-71
2024/04/16 00:42:05;;;;;;;6.63;1.70;;;;;;;;;;5410255;26;20731;-71
2024/04/16 00:44:30;;;;;;;8.13;1.47;;;;;;;;;;5413545;26;20243;-71
2024/04/16 00:46:55;;;;;;;11.10;2.43;;;;;;;;;;5427551;26;20282;-70
2024/04/16 00:49:21;;;;;;;6.40;1.10;;;;;;;;;;5404872;26;20239;-70
2024/04/16 00:51:46;;;;;;;3.20;1.03;;;;;;;;;;5414291;26;20231;-70
2024/04/16 00:54:12;;;;;;;1.90;0.80;;;;;;;;;;5425735;26;20355;-70
2024/04/16 00:56:39;;;;;;;5.90;1.13;;;;;;;;;;5417903;26;20235;-71
2024/04/16 00:59:04;;;;;;;5.57;1.13;;;;;;;;;;5414449;26;20243;-70
2024/04/16 01:01:29;;;;;;;3.57;0.80;;;;;;;;;;5413182;26;20306;-70
2024/04/16 01:03:56;;;;;;;4.67;1.50;;;;;;;;;;5408720;26;20303;-71
2024/04/16 01:06:22;;;;;;;2.90;1.10;;;;;;;;;;5409457;26;20271;-71
2024/04/16 01:08:47;;;;;;;4.33;1.07;;;;;;;;;;5415201;26;20899;-71
2024/04/16 01:11:21;;;;;;;5.57;1.30;;;;;;;;;;5415434;26;20300;-71
2024/04/16 01:13:46;;;;;;;2.07;1.07;;;;;;;;;;5406641;26;20284;-71
2024/04/16 01:16:11;;;;;;;4.47;0.93;;;;;;;;;;5410011;26;20234;-71
2024/04/16 01:18:36;;;;;;;3.57;0.90;;;;;;;;;;5404959;26;20238;-71
2024/04/16 01:21:01;;;;;;;4.33;1.07;;;;;;;;;;5413687;26;20289;-71
2024/04/16 01:23:27;;;;;;;2.53;1.03;;;;;;;;;;5410254;26;20291;-71
2024/04/16 01:25:52;;;;;;;3.60;0.73;;;;;;;;;;5415661;26;20281;-71
2024/04/16 01:28:17;;;;;;;1.43;0.70;;;;;;;;;;5413171;26;20234;-71
2024/04/16 01:30:42;;;;;;;7.03;1.60;;;;;;;;;;5418039;26;20242;-71
2024/04/16 01:33:08;;;;;;;15.17;1.70;;;;;;;;;;5415803;26;20792;-71
2024/04/16 01:35:34;;;;;;;3.93;1.27;;;;;;;;;;5408346;26;20242;-71
2024/04/16 01:38:00;;;;;;;6.93;1.77;;;;;;;;;;5407281;26;20356;-70
2024/04/16 01:40:25;;;;;;;7.23;1.50;;;;;;;;;;5416136;26;20597;-70
2024/04/16 01:42:50;;;;;;;6.83;1.57;;;;;;;;;;5412047;26;20254;-70
2024/04/16 01:45:15;;;;;;;5.60;1.50;;;;;;;;;;5424132;26;20280;-70
2024/04/16 01:47:40;;;;;;;3.37;1.10;;;;;;;;;;5413577;26;20239;-70
2024/04/16 01:50:06;;;;;;;1.07;0.40;;;;;;;;;;5415113;26;20235;-71
2024/04/16 01:52:31;;;;;;;6.07;0.67;;;;;;;;;;5415579;26;20697;-71
2024/04/16 01:54:56;;;;;;;6.00;0.80;;;;;;;;;;5414187;26;20250;-71
2024/04/16 01:57:21;;;;;;;1.33;0.40;;;;;;;;;;5411948;26;20227;-70
2024/04/16 01:59:46;;;;;;;0.97;0.50;;;;;;;;;;5407987;26;20591;-71
2024/04/16 02:02:12;;;;;;;2.93;0.43;;;;;;;;;;5415940;26;20312;-71
2024/04/16 02:04:37;;;;;;;1.83;0.60;;;;;;;;;;5414558;26;20239;-71
2024/04/16 02:07:02;;;;;;;0.77;0.50;;;;;;;;;;5410160;26;20236;-71
2024/04/16 02:09:27;;;;;;;5.33;1.03;;;;;;;;;;5414037;26;20347;-71
2024/04/16 02:11:52;;;;;;;1.03;0.50;;;;;;;;;;5405136;26;20269;-71
2024/04/16 02:14:18;;;;;;;1.73;0.40;;;;;;;;;;5400067;26;20240;-71
2024/04/16 02:16:43;;;;;;;3.23;0.70;;;;;;;;;;5408615;26;20231;-71
2024/04/16 02:19:08;;;;;;;0.57;0.53;;;;;;;;;;5411772;26;20753;-71
2024/04/16 02:21:33;;;;;;;3.23;0.53;;;;;;;;;;5414169;26;20239;-71
2024/04/16 02:23:58;;;;;;;0.83;0.50;;;;;;;;;;5415544;26;20269;-71
2024/04/16 02:26:24;;;;;;;1.33;0.43;;;;;;;;;;5415795;26;20235;-71
2024/04/16 02:28:49;;;;;;;1.63;0.43;;;;;;;;;;5416204;26;20299;-71
2024/04/16 02:31:14;;;;;;;0.30;0.30;;;;;;;;;;5409902;26;22349;-71
2024/04/16 02:33:39;;;;;;;2.13;0.40;;;;;;;;;;5406656;26;20357;-71
2024/04/16 02:36:05;;;;;;;0.40;0.40;;;;;;;;;;5412340;26;20250;-71
2024/04/16 02:38:30;;;;;;;0.70;0.40;;;;;;;;;;5416610;26;20226;-70
2024/04/16 02:40:55;;;;;;;2.73;0.30;;;;;;;;;;5413444;26;20265;-71
2024/04/16 02:43:21;;;;;;;0.90;0.60;;;;;;;;;;5411153;26;20242;-70
2024/04/16 02:45:47;;;;;;;1.73;0.60;;;;;;;;;;5408406;26;20306;-71
2024/04/16 02:48:12;;;;;;;1.20;0.60;;;;;;;;;;5413071;26;20277;-71
2024/04/16 02:50:37;;;;;;;0.90;0.60;;;;;;;;;;5420838;26;20269;-71
2024/04/16 02:53:03;;;;;;;3.00;0.80;;;;;;;;;;5400607;26;20278;-71
2024/04/16 02:55:28;;;;;;;0.90;0.60;;;;;;;;;;5412394;26;20230;-71
2024/04/16 02:57:53;;;;;;;1.90;0.40;;;;;;;;;;5414964;26;20234;-71
2024/04/16 03:00:18;;;;;;;1.63;0.73;;;;;;;;;;5420705;26;20277;-71
2024/04/16 03:02:43;;;;;;;2.30;0.83;;;;;;;;;;5418424;26;20238;-71
2024/04/16 03:05:09;;;;;;;5.47;1.20;;;;;;;;;;5409245;26;20239;-71
2024/04/16 03:07:34;;;;;;;2.40;1.10;;;;;;;;;;5412661;26;20352;-71
2024/04/16 03:10:00;;;;;;;1.83;1.10;;;;;;;;;;5406382;26;20243;-71
2024/04/16 03:12:26;;;;;;;3.03;1.07;;;;;;;;;;5404338;26;20335;-70
2024/04/16 03:14:51;;;;;;;4.73;1.47;;;;;;;;;;5409861;26;20683;-71
2024/04/16 03:17:16;;;;;;;4.17;1.20;;;;;;;;;;5414582;26;20239;-71
2024/04/16 03:19:42;;;;;;;2.73;1.70;;;;;;;;;;5438386;21;21287;-72
2024/04/16 03:22:07;;;;;;;4.67;1.20;;;;;;;;;;5399539;26;20277;-72
2024/04/16 03:24:32;;;;;;;3.93;1.03;;;;;;;;;;5400191;26;20234;-72
2024/04/16 03:26:57;;;;;;;3.07;1.27;;;;;;;;;;5404010;26;20323;-73
2024/04/16 03:29:22;;;;;;;5.33;1.53;;;;;;;;;;5396128;26;20568;-72
2024/04/16 03:31:48;;;;;;;2.77;1.27;;;;;;;;;;5403903;26;20307;-72
2024/04/16 03:34:13;;;;;;;4.47;1.57;;;;;;;;;;5398085;26;20733;-72
2024/04/16 03:36:38;;;;;;;5.07;1.33;;;;;;;;;;5396900;26;20239;-72
2024/04/16 03:39:03;;;;;;;7.23;1.60;;;;;;;;;;5404891;26;20238;-72
2024/04/16 03:41:28;;;;;;;7.63;1.80;;;;;;;;;;5404219;26;20298;-72
2024/04/16 03:43:54;;;;;;;5.30;1.40;;;;;;;;;;5402192;26;20242;-72
2024/04/16 03:46:19;;;;;;;4.23;1.20;;;;;;;;;;5409204;26;20235;-72
2024/04/16 03:48:44;;;;;;;3.47;1.93;;;;;;;;;;5438937;26;20339;-72
2024/04/16 03:51:09;;;;;;;10.40;2.10;;;;;;;;;;5406351;26;20238;-72
2024/04/16 03:53:34;;;;;;;6.63;2.20;;;;;;;;;;5402479;26;20587;-72
2024/04/16 03:56:00;;;;;;;5.70;2.20;;;;;;;;;;5399671;26;20269;-72
2024/04/16 03:58:28;;;;;;;7.83;1.90;;;;;;;;;;5406843;26;20239;-72
2024/04/16 04:01:03;;;;;;;4.90;1.73;;;;;;;;;;5413599;26;20737;-72
2024/04/16 04:03:29;;;;;;;5.33;1.60;;;;;;;;;;5407708;26;20273;-73
2024/04/16 04:05:55;;;;;;;11.83;2.30;;;;;;;;;;5410716;26;20297;-72
2024/04/16 04:08:20;;;;;;;7.13;2.03;;;;;;;;;;5411225;26;20227;-73
2024/04/16 04:10:46;;;;;;;2.20;1.10;;;;;;;;;;5405755;26;20617;-73
2024/04/16 04:13:11;;;;;;;4.83;1.10;;;;;;;;;;5411600;26;20245;-73
2024/04/16 04:15:36;;;;;;;2.13;0.80;;;;;;;;;;5404201;26;20761;-72
2024/04/16 04:18:02;;;;;;;1.60;0.60;;;;;;;;;;5405620;26;20239;-72
2024/04/16 04:20:27;;;;;;;4.10;0.80;;;;;;;;;;5400006;26;20269;-71
2024/04/16 04:22:52;;;;;;;5.37;1.00;;;;;;;;;;5397953;26;20274;-72
2024/04/16 04:25:17;;;;;;;1.63;0.80;;;;;;;;;;5407562;26;20219;-71
2024/04/16 04:27:43;;;;;;;1.23;0.80;;;;;;;;;;5411678;26;20266;-72
2024/04/16 04:30:08;;;;;;;1.53;0.73;;;;;;;;;;5402369;26;20286;-72
2024/04/16 04:32:33;;;;;;;0.93;0.63;;;;;;;;;;5401509;26;20250;-72
2024/04/16 04:34:59;;;;;;;4.33;0.80;;;;;;;;;;5412289;26;20222;-72
2024/04/16 04:37:25;;;;;;;1.10;0.73;;;;;;;;;;5403993;26;20297;-71
2024/04/16 04:39:50;;;;;;;1.33;0.70;;;;;;;;;;5411097;26;20308;-72
2024/04/16 04:42:15;;;;;;;0.67;0.50;;;;;;;;;;5411122;26;20336;-72
2024/04/16 04:44:40;;;;;;;2.50;0.53;;;;;;;;;;5414531;26;20794;-72
2024/04/16 04:47:06;;;;;;;0.40;0.40;;;;;;;;;;5408601;26;20491;-72
2024/04/16 04:49:31;;;;;;;2.47;0.67;;;;;;;;;;5397186;26;20753;-73
2024/04/16 04:51:56;;;;;;;4.43;0.90;;;;;;;;;;5407338;26;20305;-72
2024/04/16 04:54:21;;;;;;;4.43;1.03;;;;;;;;;;5415947;26;20767;-72
2024/04/16 04:56:48;;;;;;;3.23;0.80;;;;;;;;;;5414774;26;20246;-73
2024/04/16 04:59:14;;;;;;;2.27;0.50;;;;;;;;;;5409936;26;20353;-73
2024/04/16 05:01:39;;;;;;;8.60;1.27;;;;;;;;;;5413855;26;20239;-73
2024/04/16 05:04:04;;;;;;;4.43;0.87;;;;;;;;;;5401569;26;20785;-72
2024/04/16 05:06:30;;;;;;;0.90;0.60;;;;;;;;;;5406963;26;20315;-73
2024/04/16 05:08:55;;;;;;;5.00;0.90;;;;;;;;;;5404102;26;20692;-72
2024/04/16 05:11:20;;;;;;;7.13;1.83;;;;;;;;;;5413506;26;20683;-73
2024/04/16 05:13:45;;;;;;;2.73;0.93;;;;;;;;;;5412903;26;20290;-73
2024/04/16 05:16:10;;;;;;;4.90;1.10;;;;;;;;;;5414892;26;20293;-73
2024/04/16 05:18:36;;;;;;;4.60;1.43;;;;;;;;;;5416028;26;20219;-73
2024/04/16 05:21:01;;;;;;;2.47;1.17;;;;;;;;;;5412647;26;20290;-73
2024/04/16 05:23:26;;;;;;;5.53;1.83;;;;;;;;;;5411013;26;20298;-73
2024/04/16 05:25:55;;;;;;;5.87;2.13;;;;;;;;;;5409199;26;20242;-73
2024/04/16 05:28:20;;;;;;;8.63;2.67;;;;;;;;;;5395259;26;20326;-73
2024/04/16 05:30:46;;;;;;;19.00;2.77;;;;;;;;;;5404706;26;20256;-73
2024/04/16 05:33:11;;;;;;;6.53;2.13;;;;;;;;;;5411070;26;20238;-74
2024/04/16 05:35:36;;;;;;;13.00;2.63;;;;;;;;;;5402518;26;20244;-72
2024/04/16 05:38:01;;;;;;;10.43;3.47;;;;;;;;;;5414980;26;20226;-71
2024/04/16 05:40:26;;;;;;;8.27;2.40;;;;;;;;;;5408991;26;20334;-72
2024/04/16 05:42:52;;;;;;;7.40;2.03;;;;;;;;;;5410747;26;20234;-71
2024/04/16 05:45:17;;;;;;;7.47;2.37;;;;;;;;;;5411913;26;20568;-72
2024/04/16 05:47:42;;;;;;;9.27;2.80;;;;;;;;;;5407630;26;20374;-72
2024/04/16 05:50:07;;;;;;;7.63;2.47;;;;;;;;;;5414651;26;20238;-72
2024/04/16 05:52:33;;;;;;;6.37;1.97;;;;;;;;;;5400462;26;20226;-70
2024/04/16 05:54:58;;;;;;;4.60;1.93;;;;;;;;;;5407379;26;20277;-72
2024/04/16 05:57:23;;;;;;;5.43;1.90;;;;;;;;;;5410566;26;20349;-72
2024/04/16 05:59:48;;;;;;;7.00;2.53;;;;;;;;;;5412243;26;20239;-71
2024/04/16 06:02:14;;;;;;;8.03;1.97;;;;;;;;;;5400042;26;20281;-72
2024/04/16 06:04:39;;;;;;;6.03;2.30;;;;;;;;;;5413106;26;20340;-72
2024/04/16 06:07:04;;;;;;;6.63;2.10;;;;;;;;;;5413392;26;20737;-72
2024/04/16 06:09:29;;;;;;;7.67;1.77;;;;;;;;;;5398695;26;20239;-72
2024/04/16 06:11:55;;;;;;;10.73;2.03;;;;;;;;;;5418795;26;20238;-72
2024/04/16 06:14:20;;;;;;;4.03;2.27;;;;;;;;;;5415123;26;20247;-73
2024/04/16 06:16:45;;;;;;;13.43;3.13;;;;;;;;;;5404433;26;20243;-72
2024/04/16 06:19:10;;;;;;;17.10;3.67;;;;;;;;;;5398307;26;20231;-72
2024/04/16 06:21:35;;;;;;;8.23;3.57;;;;;;;;;;5402951;26;22631;-72
2024/04/16 06:24:00;;;;;;;8.57;2.00;;;;;;;;;;5401069;26;20306;-72
2024/04/16 06:26:26;;;;;;;8.90;1.93;;;;;;;;;;5402360;26;20307;-72
2024/04/16 06:28:51;;;;;;;10.37;1.93;;;;;;;;;;5401336;26;20238;-73
2024/04/16 06:31:16;;;;;;;8.17;2.47;;;;;;;;;;5400156;26;20642;-72
2024/04/16 06:33:41;;;;;;;6.57;1.63;;;;;;;;;;5401952;26;22682;-72
2024/04/16 06:36:07;;;;;;;5.93;1.47;;;;;;;;;;5398549;26;20583;-71
2024/04/16 06:38:32;;;;;;;5.97;1.00;;;;;;;;;;5393942;26;20337;-72
2024/04/16 06:40:59;;;;;;;3.97;1.87;;;;;;;;;;5399969;26;20250;-70
2024/04/16 06:43:25;;;;;;;4.60;1.83;;;;;;;;;;5387496;26;20230;-71
2024/04/16 06:45:50;;;;;;;11.13;1.80;;;;;;;;;;5391430;26;20276;-72
2024/04/16 06:48:15;;;;;;;15.40;1.70;;;;;;;;;;5407470;26;20296;-72
2024/04/16 06:50:46;;;;;;;5.10;1.67;;;;;;;;;;5402459;26;20240;-72
2024/04/16 06:53:11;;;;;;;6.30;1.73;;;;;;;;;;5409925;26;20238;-71
2024/04/16 06:55:36;;;;;;;8.07;2.27;;;;;;;;;;5397981;26;20776;-71
2024/04/16 06:58:02;;;;;;;6.83;1.97;;;;;;;;;;5390457;26;20227;-71
2024/04/16 07:00:28;;;;;;;10.87;2.50;;;;;;;;;;5403643;26;20235;-72
2024/04/16 07:02:53;;;;;;;6.73;1.50;;;;;;;;;;5392195;26;20231;-72
2024/04/16 07:05:18;;;;;;;7.67;2.20;;;;;;;;;;5404782;26;20788;-72
2024/04/16 07:07:43;;;;;;;9.73;2.03;;;;;;;;;;5401228;26;20230;-72
2024/04/16 07:10:09;;;;;;;11.23;2.20;;;;;;;;;;5406064;26;20289;-70
2024/04/16 07:12:34;;;;;;;8.77;1.97;;;;;;;;;;5407896;26;20241;-71
2024/04/16 07:14:59;;;;;;;14.33;3.10;;;;;;;;;;5411905;26;20234;-72
2024/04/16 07:17:24;;;;;;;12.50;2.47;;;;;;;;;;5407295;26;20673;-72
2024/04/16 07:19:50;;;;;;;5.17;1.77;;;;;;;;;;5395675;26;20238;-72
2024/04/16 07:22:15;;;;;;;5.50;1.50;;;;;;;;;;5395159;26;20286;-72
2024/04/16 07:24:40;;;;;;;2.93;1.40;;;;;;;;;;5409957;26;22464;-72
2024/04/16 07:27:05;;;;;;;5.63;1.90;;;;;;;;;;5413481;26;20312;-72
2024/04/16 07:29:31;;;;;;;8.30;2.20;;;;;;;;;;5410993;26;20234;-72
2024/04/16 07:31:56;;;;;;;8.60;1.50;;;;;;;;;;5411056;26;20282;-71
2024/04/16 07:34:22;;;;;;;8.73;1.97;;;;;;;;;;5409263;26;20633;-71
2024/04/16 07:36:47;;;;;;;5.30;1.53;;;;;;;;;;5394927;26;20715;-71
2024/04/16 07:39:13;;;;;;;7.80;1.60;;;;;;;;;;5402141;26;20261;-71
2024/04/16 07:41:38;;;;;;;5.67;1.60;;;;;;;;;;5411456;26;20239;-71
2024/04/16 07:44:03;;;;;;;8.33;1.67;;;;;;;;;;5412929;26;20343;-72
2024/04/16 07:46:28;;;;;;;6.80;2.20;;;;;;;;;;5411727;26;20326;-72
2024/04/16 07:48:53;;;;;;;10.73;1.97;;;;;;;;;;5406327;26;20234;-71
2024/04/16 07:51:19;;;;;;;8.57;1.73;;;;;;;;;;5411855;26;20310;-71
2024/04/16 07:53:44;;;;;;;8.73;2.77;;;;;;;;;;5412014;26;20656;-72
2024/04/16 07:56:09;;;;;;;6.50;1.87;;;;;;;;;;5413354;26;20238;-71
2024/04/16 07:58:34;;;;;;;5.87;1.57;;;;;;;;;;5410146;26;20768;-72
2024/04/16 08:01:00;;;;;;;6.07;1.17;;;;;;;;;;5408840;26;20234;-71
2024/04/16 08:03:25;;;;;;;6.33;2.73;;;;;;;;;;5402670;26;20293;-71
2024/04/16 08:05:51;;;;;;;5.70;1.57;;;;;;;;;;5415907;26;20225;-71
2024/04/16 08:08:16;;;;;;;5.60;1.57;;;;;;;;;;5411712;26;20742;-71
2024/04/16 08:10:42;;;;;;;17.53;3.17;;;;;;;;;;5412762;26;20308;-71
2024/04/16 08:13:07;;;;;;;10.40;2.10;;;;;;;;;;5419127;26;20230;-72
2024/04/16 08:15:32;;;;;;;9.87;2.47;;;;;;;;;;5418390;26;20294;-71
2024/04/16 08:17:57;;;;;;;9.20;2.23;;;;;;;;;;5415581;26;20238;-72
2024/04/16 08:20:22;;;;;;;11.23;1.90;;;;;;;;;;5418401;26;20729;-70
2024/04/16 08:22:47;;;;;;;6.33;2.13;;;;;;;;;;5397861;26;20251;-70
2024/04/16 08:25:13;;;;;;;4.23;1.63;;;;;;;;;;5410053;26;20333;-72
2024/04/16 08:27:38;;;;;;;5.53;1.40;;;;;;;;;;5419060;26;20605;-71
2024/04/16 08:30:04;;;;;;;9.77;2.47;;;;;;;;;;5412425;26;20348;-71
2024/04/16 08:32:29;;;;;;;5.93;1.60;;;;;;;;;;5413721;26;20234;-71
2024/04/16 08:34:54;;;;;;;4.50;1.70;;;;;;;;;;5408124;26;20282;-71
2024/04/16 08:37:19;;;;;;;2.53;1.40;;;;;;;;;;5420531;26;20277;-70
2024/04/16 08:39:44;;;;;;;13.37;2.93;;;;;;;;;;5412885;26;20243;-70
2024/04/16 08:42:11;;;;;;;5.80;1.83;;;;;;;;;;5418005;26;20929;-71
2024/04/16 08:44:38;;;;;;;8.73;2.13;;;;;;;;;;5411710;26;20293;-71
2024/04/16 08:47:03;;;;;;;11.27;1.77;;;;;;;;;;5404644;26;20278;-73
2024/04/16 08:49:29;;;;;;;8.13;2.30;;;;;;;;;;5414742;26;20235;-74
2024/04/16 08:51:55;;;;;;;3.03;1.40;;;;;;;;;;5415212;26;20737;-74
2024/04/16 08:54:21;;;;;;;7.87;1.63;;;;;;;;;;5403041;26;20264;-73
2024/04/16 08:56:46;;;;;;;1.97;0.87;;;;;;;;;;5408699;26;20242;-73
2024/04/16 08:59:12;;;;;;;3.77;1.50;;;;;;;;;;5407724;26;20741;-73
2024/04/16 09:01:37;;;;;;;8.43;1.53;;;;;;;;;;5415767;26;20513;-72
2024/04/16 09:04:02;;;;;;;4.80;1.10;;;;;;;;;;5417140;26;20296;-72
2024/04/16 09:06:28;;;;;;;7.07;1.60;;;;;;;;;;5417003;26;20571;-72
2024/04/16 09:08:53;;;;;;;5.97;1.80;;;;;;;;;;5417965;26;20235;-72
2024/04/16 09:11:19;;;;;;;12.57;2.00;;;;;;;;;;5418818;26;20281;-72
2024/04/16 09:13:45;;;;;;;4.67;1.50;;;;;;;;;;5417164;26;20335;-72
2024/04/16 09:16:10;;;;;;;6.10;1.60;;;;;;;;;;5411851;26;20637;-72
2024/04/16 09:18:35;;;;;;;6.70;1.50;;;;;;;;;;5417504;26;20308;-72
2024/04/16 09:21:00;;;;;;;5.97;1.77;;;;;;;;;;5421202;21;20642;-70
2024/04/16 09:23:26;;;;;;;4.80;1.23;;;;;;;;;;5377495;26;20255;-70
2024/04/16 09:25:51;;;;;;;4.77;1.83;;;;;;;;;;5385950;26;20345;-69
2024/04/16 09:28:17;;;;;;;4.47;1.60;;;;;;;;;;5389393;26;20238;-69
2024/04/16 09:30:52;;;;;;;4.10;2.13;;;;;;;;;;5368121;26;20270;-70
2024/04/16 09:33:19;;;;;;;7.83;1.60;;;;;;;;;;5388195;26;20238;-69
2024/04/16 09:35:44;;;;;;;10.43;2.40;;;;;;;;;;5391955;26;20239;-70
2024/04/16 09:38:09;;;;;;;8.27;2.40;;;;;;;;;;5388836;26;20331;-69
2024/04/16 09:40:35;;;;;;;7.13;1.77;;;;;;;;;;5398211;26;20223;-70
2024/04/16 09:43:01;;;;;;;17.03;2.13;;;;;;;;;;5389013;26;20228;-69
2024/04/16 09:45:27;;;;;;;5.93;1.97;;;;;;;;;;5394244;26;20252;-69
2024/04/16 09:47:53;;;;;;;8.80;2.03;;;;;;;;;;5383491;26;20286;-69
2024/04/16 09:50:19;;;;;;;7.70;2.45;;;;;;;;;;5379335;26;20235;-69
2024/04/16 09:52:46;;;;;;;10.88;2.45;;;;;;;;;;5402037;26;20228;-68
2024/04/16 09:55:11;;;;;;;8.40;2.00;;;;;;;;;;5378482;26;20229;-69
2024/04/16 09:57:37;;;;;;;6.15;1.33;;;;;;;;;;5393278;26;20290;-68
2024/04/16 10:00:03;;;;;;;4.90;1.75;;;;;;;;;;5395376;26;20290;-70
2024/04/16 10:02:30;;;;;;;5.20;1.15;;;;;;;;;;5391181;26;20609;-69
2024/04/16 10:04:56;;;;;;;6.88;2.20;;;;;;;;;;5374749;26;20284;-70
2024/04/16 10:07:21;;;;;;;2.80;1.30;;;;;;;;;;5384840;26;20722;-68
2024/04/16 10:09:47;;;;;;;1.70;1.05;;;;;;;;;;5401632;26;20242;-69
2024/04/16 10:12:12;;;;;;;3.90;1.15;;;;;;;;;;5388531;26;20236;-68
2024/04/16 10:14:37;;;;;;;6.82;0.90;;;;;;;;;;5391826;26;20345;-69
2024/04/16 10:17:02;;;;;;;10.05;1.63;;;;;;;;;;5392168;26;20681;-69
2024/04/16 10:19:28;;;;;;;2.63;0.82;;;;;;;;;;5391315;26;20240;-68
2024/04/16 10:21:59;;;;;;;4.65;1.55;;;;;;;;;;5395511;26;20565;-68
2024/04/16 10:24:26;;;;;;;7.57;1.98;;;;;;;;;;5371435;26;20742;-70
2024/04/16 10:26:56;;;;;;;5.15;0.82;;;;;;;;;;5388089;26;20805;-70
2024/04/16 10:29:25;;;;;;;2.88;1.08;;;;;;;;;;5387237;26;20281;-69
2024/04/16 10:31:51;;;;;;;3.83;1.58;;;;;;;;;;5399570;26;20651;-69
2024/04/16 10:34:23;;;;;;;2.33;0.63;;;;;;;;;;5386954;26;20236;-69
2024/04/16 10:36:50;;;;;;;2.50;0.80;;;;;;;;;;5400944;26;20669;-69
2024/04/16 10:39:16;;;;;;;3.65;1.02;;;;;;;;;;5386684;26;20345;-69
2024/04/16 10:41:50;;;;;;;3.95;1.13;;;;;;;;;;5394291;26;20239;-69
2024/04/16 10:44:17;;;;;;;1.65;0.82;;;;;;;;;;5369986;26;20628;-69
2024/04/16 10:46:42;;;;;;;1.55;0.75;;;;;;;;;;5389648;26;20859;-69
2024/04/16 10:49:07;;;;;;;3.63;0.93;;;;;;;;;;5386711;26;20243;-69
2024/04/16 10:51:32;;;;;;;5.60;0.88;;;;;;;;;;5391170;26;20220;-69
2024/04/16 10:54:05;;;;;;;2.85;0.70;;;;;;;;;;5393490;26;20242;-69
2024/04/16 10:56:30;;;;;;;2.72;0.90;;;;;;;;;;5389249;26;20735;-69
2024/04/16 10:58:56;;;;;;;1.88;0.88;;;;;;;;;;5391996;26;20380;-69
2024/04/16 11:01:23;;;;;;;1.55;0.80;;;;;;;;;;5389940;26;20243;-69
2024/04/16 11:03:48;;;;;;;4.63;1.00;;;;;;;;;;5386571;26;20255;-69
2024/04/16 11:06:15;;;;;;;2.00;0.93;;;;;;;;;;5383343;26;20270;-69
2024/04/16 11:08:40;;;;;;;3.38;0.90;;;;;;;;;;5390492;26;20313;-70
2024/04/16 11:11:06;;;;;;;4.93;0.80;;;;;;;;;;5392934;26;20374;-69
2024/04/16 11:13:32;;;;;;;5.97;0.70;;;;;;;;;;5370665;26;20332;-70
2024/04/16 11:15:58;;;;;;;2.05;0.85;;;;;;;;;;5385400;26;20234;-69
2024/04/16 11:18:23;;;;;;;4.50;0.90;;;;;;;;;;5386026;26;20271;-70
2024/04/16 11:20:49;;;;;;;3.35;0.70;;;;;;;;;;5390326;26;20228;-68
2024/04/16 11:23:14;;;;;;;5.28;1.55;;;;;;;;;;5385067;26;20283;-69
2024/04/16 11:25:44;;;;;;;1.00;0.68;;;;;;;;;;5392821;26;20279;-69
2024/04/16 11:28:09;;;;;;;2.05;1.13;;;;;;;;;;5386838;26;20303;-69
2024/04/16 11:30:34;;;;;;;4.10;0.80;;;;;;;;;;5393239;26;20735;-69
2024/04/16 11:32:59;;;;;;;1.00;0.82;;;;;;;;;;5381640;26;20234;-69
2024/04/16 11:35:25;;;;;;;2.33;1.00;;;;;;;;;;5382187;26;20320;-69
2024/04/16 11:37:50;;;;;;;3.80;1.70;;;;;;;;;;5388022;26;20287;-69
2024/04/16 11:40:15;;;;;;;3.83;1.30;;;;;;;;;;5383299;26;20244;-69
2024/04/16 11:42:42;;;;;;;2.03;0.73;;;;;;;;;;5376354;26;20317;-69
2024/04/16 11:45:08;;;;;;;5.93;1.30;;;;;;;;;;5388656;26;20246;-69
2024/04/16 11:47:35;;;;;;;2.75;0.77;;;;;;;;;;5384928;26;20228;-69
2024/04/16 11:50:01;;;;;;;2.42;1.02;;;;;;;;;;5384277;26;20320;-68
2024/04/16 11:52:26;;;;;;;2.90;1.02;;;;;;;;;;5377643;26;20292;-68
2024/04/16 11:54:51;;;;;;;3.45;1.27;;;;;;;;;;5379515;26;20248;-69
2024/04/16 11:57:19;;;;;;;4.25;0.98;;;;;;;;;;5395173;26;20270;-68
2024/04/16 11:59:47;;;;;;;3.83;1.30;;;;;;;;;;5378967;26;20262;-69
2024/04/16 12:02:12;;;;;;;7.38;2.67;;;;;;;;;;5392118;26;20337;-68
2024/04/16 12:04:37;;;;;;;7.22;1.58;;;;;;;;;;5378606;26;20657;-69
2024/04/16 12:07:03;;;;;;;2.50;1.38;;;;;;;;;;5383808;26;20606;-69
2024/04/16 12:09:28;;;;;;;6.85;1.88;;;;;;;;;;5390740;26;20239;-69
2024/04/16 12:11:53;;;;;;;5.53;1.35;;;;;;;;;;5377007;26;20244;-68
2024/04/16 12:14:22;;;;;;;4.32;1.75;;;;;;;;;;5383319;26;20312;-69
2024/04/16 12:16:47;;;;;;;5.38;1.73;;;;;;;;;;5385970;26;20228;-69
2024/04/16 12:19:12;;;;;;;6.88;2.00;;;;;;;;;;5390995;26;20257;-69
2024/04/16 12:21:38;;;;;;;2.33;1.50;;;;;;;;;;5384065;26;20249;-69
2024/04/16 12:24:03;;;;;;;6.82;2.70;;;;;;;;;;5385357;26;20651;-70
2024/04/16 12:26:28;;;;;;;4.95;1.88;;;;;;;;;;5384554;26;20262;-69
2024/04/16 12:28:57;;;;;;;8.73;3.00;;;;;;;;;;5391541;26;20243;-69
2024/04/16 12:31:23;;;;;;;9.70;2.40;;;;;;;;;;5367570;26;20577;-69
2024/04/16 12:33:48;;;;;;;6.68;2.42;;;;;;;;;;5383002;26;20290;-70
2024/04/16 12:36:14;;;;;;;13.13;3.28;;;;;;;;;;5392060;26;20270;-69
2024/04/16 12:38:39;;;;;;;4.95;2.50;;;;;;;;;;5376447;26;20287;-69
2024/04/16 12:41:04;;;;;;;10.98;3.80;;;;;;;;;;5382707;26;20324;-69
2024/04/16 12:43:30;;;;;;;9.85;2.47;;;;;;;;;;5387538;26;20332;-70
2024/04/16 12:45:58;;;;;;;4.40;2.00;;;;;;;;;;5377479;26;20615;-70
2024/04/16 12:48:23;;;;;;;6.07;1.85;;;;;;;;;;5383253;26;20632;-69
2024/04/16 12:50:49;;;;;;;8.77;2.20;;;;;;;;;;5384478;26;20228;-69
2024/04/16 12:53:14;;;;;;;10.95;2.20;;;;;;;;;;5383574;26;20607;-70
2024/04/16 12:55:39;;;;;;;13.10;2.88;;;;;;;;;;5384885;26;20244;-70
2024/04/16 12:58:04;;;;;;;6.22;2.10;;;;;;;;;;5388459;26;20341;-69
2024/04/16 13:00:30;;;;;;;7.45;1.90;;;;;;;;;;5384177;26;20248;-69
2024/04/16 13:02:55;;;;;;;7.90;2.92;;;;;;;;;;5378573;26;20251;-69
2024/04/16 13:05:20;;;;;;;7.05;2.22;;;;;;;;;;5377839;26;20735;-68
2024/04/16 13:07:45;;;;;;;5.60;3.20;;;;;;;;;;5389839;26;20232;-69
2024/04/16 13:10:11;;;;;;;9.57;2.63;;;;;;;;;;5387607;26;20278;-69
2024/04/16 13:12:37;;;;;;;11.13;3.25;;;;;;;;;;5384616;26;20282;-69
2024/04/16 13:15:03;;;;;;;4.07;2.00;;;;;;;;;;5388349;26;20275;-69
2024/04/16 13:17:28;;;;;;;5.10;1.70;;;;;;;;;;5391945;26;20379;-68
2024/04/16 13:19:53;;;;;;;5.05;1.92;;;;;;;;;;5382517;26;20618;-69
2024/04/16 13:22:19;;;;;;;9.02;1.80;;;;;;;;;;5382879;26;20235;-69
2024/04/16 13:24:44;;;;;;;7.85;2.13;;;;;;;;;;5374493;26;20257;-69
2024/04/16 13:27:09;;;;;;;5.22;1.83;;;;;;;;;;5393610;26;20285;-69
2024/04/16 13:29:34;;;;;;;6.93;2.15;;;;;;;;;;5387132;26;20232;-69
2024/04/16 13:31:59;;;;;;;4.15;2.00;;;;;;;;;;5397012;26;20232;-68
2024/04/16 13:34:26;;;;;;;3.88;1.95;;;;;;;;;;5398097;26;20244;-69
2024/04/16 13:36:51;;;;;;;6.63;1.92;;;;;;;;;;5385392;26;20299;-69
2024/04/16 13:39:16;;;;;;;4.00;1.88;;;;;;;;;;5387009;26;20285;-67
2024/04/16 13:41:41;;;;;;;7.50;2.25;;;;;;;;;;5376452;26;20256;-69
2024/04/16 13:44:07;;;;;;;6.10;1.98;;;;;;;;;;5397438;26;20320;-68
2024/04/16 13:46:32;;;;;;;5.45;2.25;;;;;;;;;;5378459;26;20299;-69
2024/04/16 13:48:57;;;;;;;10.45;2.58;;;;;;;;;;5378707;26;20232;-69
2024/04/16 13:51:22;;;;;;;2.53;1.80;;;;;;;;;;5383477;26;20266;-69
2024/04/16 13:53:47;;;;;;;3.22;2.33;;;;;;;;;;5377029;26;20323;-69
2024/04/16 13:56:12;;;;;;;6.35;2.70;;;;;;;;;;5388153;26;20312;-68
2024/04/16 13:58:38;;;;;;;5.45;2.45;;;;;;;;;;5383143;26;20345;-70
2024/04/16 14:01:03;;;;;;;4.80;2.22;;;;;;;;;;5384926;26;20307;-68
2024/04/16 14:03:29;;;;;;;4.20;2.22;;;;;;;;;;5382225;26;20252;-68
2024/04/16 14:05:54;;;;;;;4.47;2.33;;;;;;;;;;5372313;26;20348;-68
2024/04/16 14:08:19;;;;;;;5.70;2.30;;;;;;;;;;5381176;26;20240;-68
2024/04/16 14:10:45;;;;;;;3.78;1.80;;;;;;;;;;5384544;26;20291;-70
2024/04/16 14:13:10;;;;;;;2.58;1.90;;;;;;;;;;5383687;26;20291;-69
2024/04/16 14:15:35;;;;;;;3.70;1.67;;;;;;;;;;5380061;26;20283;-69
2024/04/16 14:18:00;;;;;;;4.90;2.47;;;;;;;;;;5383703;26;20247;-69
2024/04/16 14:20:25;;;;;;;4.85;2.20;;;;;;;;;;5384484;26;20276;-69
2024/04/16 14:22:51;;;;;;;10.05;2.88;;;;;;;;;;5377733;26;20236;-67
2024/04/16 14:25:16;;;;;;;8.40;1.98;;;;;;;;;;5383815;26;20277;-67
2024/04/16 14:27:41;;;;;;;5.18;1.73;;;;;;;;;;5382447;26;20256;-69
2024/04/16 14:30:07;;;;;;;4.15;2.33;;;;;;;;;;5386054;26;20815;-68